KAXV

Neil Armstrong Airport

Wapakoneta, Ohio, USA
METAR KAXV 191815Z AUTO 08004KT 10SM SCT032 27/21 A3004 RMK AO2
Observed Flight Rules
Sep-19 @ 18:15 UTC (31 minutes ago) Visual Flight Rules
Wind Visibility Clouds
80° at 4 knots 10 miles
  • Scattered at 3,200' AGL
Temperatures Readings
Current 27°C / 81°F
Dewpoint 21°C / 70°F
Humidity 70%
Altimeter 30.04" Hg
Pressure 1017 hPa
Elevation 279
METAR KAXV 191815Z AUTO 08004KT 10SM SCT032 27/21 A3004 RMK AO2
Observed Flight Rules
Sep-19 @ 18:15 UTC
(31 minutes ago)
VFR
Wind Visibility
80° at 4 knots 10 miles
Clouds
  • Scattered at 3,200' AGL
Temperature Dewpoint
27°C / 81°F 21°C / 70°F
Humidity Altimeter Pressure
70% 30.04" Hg 1017 hPa